createdAt,value
2023-11-20T00:01:56.639Z,8.93
2023-11-20T00:07:01.015Z,8.60
2023-11-20T00:12:04.805Z,9.23
2023-11-20T00:17:07.824Z,10.80
2023-11-20T00:22:12.132Z,12.07
2023-11-20T00:27:16.616Z,10.93
2023-11-20T00:32:19.691Z,16.20
2023-11-20T00:37:24.042Z,12.30
2023-11-20T00:42:27.010Z,13.00
2023-11-20T00:47:29.971Z,14.97
2023-11-20T00:52:35.940Z,11.93
2023-11-20T00:57:39.558Z,12.43
2023-11-20T01:02:44.263Z,13.30
2023-11-20T01:07:49.167Z,16.50
2023-11-20T01:12:52.231Z,17.77
2023-11-20T01:17:55.229Z,17.23
2023-11-20T01:22:59.735Z,17.83
2023-11-20T01:28:02.817Z,20.33
2023-11-20T01:33:05.825Z,19.60
2023-11-20T01:38:10.227Z,17.70
2023-11-20T01:43:13.429Z,16.67
2023-11-20T01:48:16.790Z,17.27
2023-11-20T01:53:21.389Z,17.43
2023-11-20T01:58:26.272Z,20.77
2023-11-20T02:03:29.277Z,18.60
2023-11-20T02:08:33.706Z,15.83
2023-11-20T02:13:37.317Z,16.63
2023-11-20T02:18:40.280Z,19.20
2023-11-20T02:23:44.642Z,17.73
2023-11-20T02:28:54.570Z,22.30
2023-11-20T02:34:02.347Z,15.20
2023-11-20T02:39:06.984Z,13.53
2023-11-20T02:44:10.083Z,14.00
2023-11-20T02:49:15.985Z,14.40
2023-11-20T02:54:18.972Z,13.17
2023-11-20T02:59:22.035Z,13.87
2023-11-20T03:04:26.694Z,14.83
2023-11-20T03:09:29.628Z,14.83
2023-11-20T03:14:32.508Z,13.93
2023-11-20T03:19:36.840Z,15.53
2023-11-20T03:24:39.818Z,13.17
2023-11-20T03:29:45.167Z,19.67
2023-11-20T03:34:49.570Z,13.50
2023-11-20T03:39:52.595Z,12.97
2023-11-20T03:44:55.635Z,11.83
2023-11-20T03:49:59.934Z,11.90
2023-11-20T03:55:02.901Z,12.67
2023-11-20T04:00:06.945Z,15.87
2023-11-20T04:05:11.511Z,12.90
2023-11-20T04:10:14.520Z,10.97
2023-11-20T04:15:17.505Z,14.90
2023-11-20T04:20:22.152Z,11.43
2023-11-20T04:25:25.604Z,12.13
2023-11-20T04:30:29.594Z,12.20
2023-11-20T04:35:33.972Z,12.27
2023-11-20T04:40:37.226Z,12.00
2023-11-20T04:45:40.208Z,13.43
2023-11-20T04:50:44.587Z,9.80
2023-11-20T04:55:47.485Z,10.45
2023-11-20T05:00:50.924Z,12.63
2023-11-20T05:05:55.314Z,8.73
2023-11-20T05:10:58.236Z,9.17
2023-11-20T05:16:01.256Z,7.10
2023-11-20T05:21:06.281Z,8.33
2023-11-20T05:26:10.570Z,11.53
2023-11-20T05:31:13.576Z,8.43
2023-11-20T05:36:17.980Z,9.40
2023-11-20T05:41:20.970Z,11.87
2023-11-20T05:46:24.138Z,8.97
2023-11-20T05:51:28.490Z,8.97
2023-11-20T05:56:32.482Z,9.87
2023-11-20T06:01:39.214Z,7.70
2023-11-20T06:06:43.643Z,11.20
2023-11-20T06:11:50.322Z,14.63
2023-11-20T06:16:53.331Z,11.83
2023-11-20T06:21:57.959Z,8.87
2023-11-20T06:27:01.048Z,9.07
2023-11-20T06:32:04.125Z,8.97
2023-11-20T06:37:08.955Z,8.43
2023-11-20T06:42:11.878Z,8.80
2023-11-20T06:47:14.927Z,6.90
2023-11-20T06:52:19.534Z,12.30
2023-11-20T06:57:24.187Z,8.13
2023-11-20T07:02:27.428Z,8.00
2023-11-20T07:07:31.961Z,15.33
2023-11-20T07:12:35.055Z,11.47
2023-11-20T07:17:38.632Z,9.27
2023-11-20T07:22:43.049Z,6.67
2023-11-20T07:27:46.054Z,5.90
2023-11-20T07:32:49.381Z,9.60
2023-11-20T07:37:53.779Z,6.43
2023-11-20T07:42:57.504Z,7.47
2023-11-20T07:48:01.019Z,6.47
2023-11-20T07:53:06.270Z,7.97
2023-11-20T07:58:09.222Z,13.73
2023-11-20T08:03:12.257Z,6.23
2023-11-20T08:08:16.577Z,6.23
2023-11-20T08:13:19.520Z,8.83
2023-11-20T08:18:22.593Z,8.60
2023-11-20T08:23:26.973Z,10.90
2023-11-20T08:28:29.859Z,7.53
2023-11-20T08:33:33.113Z,6.93
2023-11-20T08:38:37.654Z,11.27
2023-11-20T08:43:41.274Z,12.10
2023-11-20T08:48:44.762Z,9.50
2023-11-20T08:53:49.221Z,17.27
2023-11-20T08:58:52.203Z,14.33
2023-11-20T09:03:55.707Z,12.37
2023-11-20T09:09:00.263Z,19.00
2023-11-20T09:14:03.146Z,16.93
2023-11-20T09:19:06.292Z,19.20
2023-11-20T09:24:11.157Z,13.00
2023-11-20T09:29:14.241Z,14.20
2023-11-20T09:34:19.994Z,20.03
2023-11-20T09:39:24.399Z,12.53
2023-11-20T09:44:29.238Z,12.13
2023-11-20T09:49:34.790Z,13.73
2023-11-20T09:54:42.313Z,12.83
2023-11-20T09:59:45.776Z,12.20
2023-11-20T10:04:55.084Z,14.73
2023-11-20T10:10:00.111Z,13.60
2023-11-20T10:15:03.381Z,12.53
2023-11-20T10:20:10.790Z,12.10
2023-11-20T10:25:15.259Z,12.93
2023-11-20T10:30:20.671Z,12.27
2023-11-20T10:35:24.265Z,11.40
2023-11-20T10:40:28.620Z,14.97
2023-11-20T10:45:31.555Z,18.80
2023-11-20T10:50:36.334Z,14.07
2023-11-20T10:55:45.293Z,17.07
2023-11-20T11:00:51.007Z,18.00
2023-11-20T11:05:54.703Z,14.47
2023-11-20T11:10:59.925Z,15.00
2023-11-20T11:16:07.835Z,12.17
2023-11-20T11:21:13.303Z,14.37
2023-11-20T11:26:23.897Z,14.10
2023-11-20T11:31:37.434Z,14.17
2023-11-20T11:36:51.076Z,14.57
2023-11-20T11:42:10.332Z,15.57
2023-11-20T11:47:16.010Z,11.70
2023-11-20T11:52:28.123Z,9.43
2023-11-20T11:57:33.097Z,11.00
2023-11-20T12:03:10.971Z,17.23
2023-11-20T12:08:14.441Z,11.17
2023-11-20T12:13:19.693Z,7.30
2023-11-20T12:18:25.360Z,12.37
2023-11-20T12:23:31.485Z,7.80
2023-11-20T12:28:37.676Z,6.97
2023-11-20T12:33:43.168Z,7.27
2023-11-20T12:38:47.513Z,6.20
2023-11-20T12:43:51.877Z,5.70
2023-11-20T12:48:54.849Z,6.93
2023-11-20T12:53:58.904Z,12.80
2023-11-20T12:59:03.213Z,6.43
2023-11-20T13:04:07.380Z,8.30
2023-11-20T13:09:10.694Z,9.33
2023-11-20T13:14:15.901Z,7.47
2023-11-20T13:19:40.867Z,7.67
2023-11-20T13:24:56.430Z,7.47
2023-11-20T13:30:16.682Z,8.10
2023-11-20T13:35:21.055Z,6.80
2023-11-20T13:40:30.759Z,5.97
2023-11-20T13:45:41.339Z,10.53
2023-11-20T13:50:45.921Z,7.43
2023-11-20T13:55:50.376Z,14.00
2023-11-20T14:00:58.238Z,6.80
2023-11-20T14:06:02.109Z,5.90
2023-11-20T14:11:05.609Z,8.17
2023-11-20T14:16:13.757Z,7.73
2023-11-20T14:21:18.028Z,7.27
2023-11-20T14:26:29.543Z,9.13
2023-11-20T14:31:40.088Z,7.73
2023-11-20T14:36:43.573Z,7.70
2023-11-20T14:41:46.475Z,7.30
2023-11-20T14:46:50.798Z,7.43
2023-11-20T14:51:54.277Z,13.17
2023-11-20T14:56:57.374Z,10.80
2023-11-20T15:02:02.697Z,9.17
2023-11-20T15:07:06.170Z,9.77
2023-11-20T15:12:10.076Z,11.83
2023-11-20T15:17:14.726Z,13.43
2023-11-20T15:22:17.847Z,10.20
2023-11-20T15:27:21.929Z,10.17
2023-11-20T15:32:26.297Z,10.47
2023-11-20T15:37:30.690Z,8.07
2023-11-20T15:42:33.886Z,9.40
2023-11-20T15:47:39.380Z,13.73
2023-11-20T15:52:42.658Z,12.50
2023-11-20T15:57:47.352Z,9.17
2023-11-20T16:02:51.662Z,11.20
2023-11-20T16:07:54.577Z,7.83
2023-11-20T16:12:57.532Z,8.70
